createdAt,value
2018-09-04T00:00:30.174Z,101129.17
2018-09-04T00:02:58.212Z,101129.17
2018-09-04T00:05:26.292Z,101125.00
2018-09-04T00:07:54.340Z,101131.93
2018-09-04T00:10:22.400Z,101132.05
2018-09-04T00:12:50.597Z,101138.50
2018-09-04T00:15:18.619Z,101138.63
2018-09-04T00:17:46.664Z,101141.09
2018-09-04T00:20:14.709Z,101139.08
2018-09-04T00:22:42.736Z,101139.08
2018-09-04T00:25:10.769Z,101136.44
2018-09-04T00:27:38.814Z,101135.11
2018-09-04T00:30:08.840Z,101134.75
2018-09-04T00:32:36.882Z,101137.76
2018-09-04T00:35:04.978Z,101147.52
2018-09-04T00:37:33.013Z,101144.33
2018-09-04T00:40:01.073Z,101145.44
2018-09-04T00:42:29.101Z,101149.11
2018-09-04T00:44:57.133Z,101150.43
2018-09-04T00:47:25.179Z,101149.89
2018-09-04T00:49:53.214Z,101145.39
2018-09-04T00:52:21.292Z,101140.25
2018-09-04T00:54:49.316Z,101131.05
2018-09-04T00:57:17.364Z,101138.93
2018-09-04T00:59:45.399Z,101142.48
2018-09-04T01:02:13.441Z,101148.63
2018-09-04T01:04:41.555Z,101144.28
2018-09-04T01:07:09.592Z,101150.42
2018-09-04T01:09:37.620Z,101152.70
2018-09-04T01:12:05.783Z,101157.05
2018-09-04T01:14:33.964Z,101155.36
2018-09-04T01:17:02.004Z,101153.86
2018-09-04T01:19:36.705Z,101161.59
2018-09-04T01:22:05.221Z,101148.30
2018-09-04T01:24:33.255Z,101138.61
2018-09-04T01:27:01.300Z,101144.59
2018-09-04T01:29:29.359Z,101139.51
2018-09-04T01:31:57.387Z,101137.22
2018-09-04T01:34:25.435Z,101137.86
2018-09-04T01:36:53.507Z,101137.70
2018-09-04T01:39:21.532Z,101139.03
2018-09-04T01:41:49.573Z,101141.20
2018-09-04T01:44:17.613Z,101144.02
2018-09-04T01:46:45.666Z,101138.30
2018-09-04T01:49:13.705Z,101142.00
2018-09-04T01:51:41.751Z,101144.14
2018-09-04T01:54:09.789Z,101143.44
2018-09-04T01:56:37.948Z,101152.53
2018-09-04T01:59:06.167Z,101148.20
2018-09-04T02:01:34.712Z,101143.44
2018-09-04T02:04:02.763Z,101141.73
2018-09-04T02:06:30.788Z,101134.95
2018-09-04T02:08:59.314Z,101132.19
2018-09-04T02:11:27.416Z,101134.33
2018-09-04T02:13:55.489Z,101140.08
2018-09-04T02:16:23.541Z,101146.78
2018-09-04T02:18:51.587Z,101146.61
2018-09-04T02:21:19.625Z,101148.41
2018-09-04T02:23:47.702Z,101143.20
2018-09-04T02:26:15.745Z,101134.27
2018-09-04T02:28:43.784Z,101137.19
2018-09-04T02:31:11.825Z,101136.98
2018-09-04T02:33:39.904Z,101129.83
2018-09-04T02:36:07.951Z,101134.75
2018-09-04T02:38:36.038Z,101132.80
2018-09-04T02:41:11.544Z,101125.22
2018-09-04T02:43:39.597Z,101130.52
2018-09-04T02:46:07.653Z,101131.84
2018-09-04T02:48:35.716Z,101128.55
2018-09-04T02:51:03.776Z,101126.75
2018-09-04T02:53:31.848Z,101126.59
2018-09-04T02:55:59.885Z,101123.47
2018-09-04T02:58:27.944Z,101112.88
2018-09-04T03:00:55.980Z,101123.47
2018-09-04T03:03:24.141Z,101121.55
2018-09-04T03:05:52.198Z,101122.88
2018-09-04T03:08:20.259Z,101120.70
2018-09-04T03:10:48.300Z,101114.69
2018-09-04T03:13:16.381Z,101110.36
2018-09-04T03:15:44.422Z,101108.22
2018-09-04T03:18:12.492Z,101102.03
2018-09-04T03:20:40.558Z,101101.50
2018-09-04T03:23:08.764Z,101103.14
2018-09-04T03:25:36.777Z,101101.67
2018-09-04T03:28:04.840Z,101096.38
2018-09-04T03:30:32.905Z,101095.15
2018-09-04T03:33:00.975Z,101094.13
2018-09-04T03:35:29.058Z,101090.73
2018-09-04T03:37:57.088Z,101087.25
2018-09-04T03:40:25.179Z,101085.30
2018-09-04T03:42:53.248Z,101096.20
2018-09-04T03:45:21.302Z,101112.95
2018-09-04T03:47:49.370Z,101116.11
2018-09-04T03:50:17.437Z,101113.80
2018-09-04T03:52:45.497Z,101119.30
2018-09-04T03:55:13.604Z,101108.33
2018-09-04T03:57:41.700Z,101113.05
2018-09-04T04:00:09.783Z,101119.84
2018-09-04T04:02:37.858Z,101122.16
2018-09-04T04:05:06.012Z,101117.89
2018-09-04T04:07:34.082Z,101116.62
2018-09-04T04:10:02.150Z,101116.84
2018-09-04T04:12:30.178Z,101116.69
2018-09-04T04:14:58.233Z,101115.03
2018-09-04T04:17:26.276Z,101118.01
2018-09-04T04:19:54.325Z,101119.33
2018-09-04T04:22:22.404Z,101122.49
2018-09-04T04:24:50.451Z,101119.97
2018-09-04T04:27:18.489Z,101119.97
2018-09-04T04:29:46.541Z,101120.11
2018-09-04T04:32:14.945Z,101122.91
2018-09-04T04:34:42.981Z,101118.52
2018-09-04T04:37:11.044Z,101127.30
2018-09-04T04:39:39.064Z,101125.13
2018-09-04T04:42:07.104Z,101122.85
2018-09-04T04:44:35.148Z,101123.12
2018-09-04T04:47:03.338Z,101126.91
2018-09-04T04:49:31.368Z,101128.02
2018-09-04T04:51:59.396Z,101131.63
2018-09-04T04:54:27.440Z,101132.25
2018-09-04T04:56:55.473Z,101135.89
2018-09-04T04:59:23.513Z,101136.52
2018-09-04T05:01:51.549Z,101139.49
2018-09-04T05:04:19.584Z,101131.38
2018-09-04T05:06:47.612Z,101136.60
2018-09-04T05:09:15.653Z,101137.71
2018-09-04T05:11:43.697Z,101140.14
2018-09-04T05:14:11.760Z,101134.63
2018-09-04T05:16:39.798Z,101133.94
2018-09-04T05:19:07.853Z,101139.23
2018-09-04T05:21:35.893Z,101145.52
2018-09-04T05:24:04.912Z,101143.49
2018-09-04T05:26:32.932Z,101147.45
2018-09-04T05:29:00.972Z,101157.20
2018-09-04T05:31:32.329Z,101154.22
2018-09-04T05:34:00.378Z,101164.91
2018-09-04T05:36:28.584Z,101169.50
2018-09-04T05:38:56.605Z,101172.44
2018-09-04T05:41:24.640Z,101178.13
2018-09-04T05:43:55.399Z,101171.94
2018-09-04T05:46:30.637Z,101169.66
2018-09-04T05:48:59.020Z,101175.02
2018-09-04T05:51:27.052Z,101172.37
2018-09-04T05:53:55.205Z,101179.13
2018-09-04T05:56:23.252Z,101180.45
2018-09-04T05:58:51.280Z,101177.66
2018-09-04T06:01:19.309Z,101177.98
2018-09-04T06:03:47.450Z,101181.95
2018-09-04T06:06:15.487Z,101180.38
2018-09-04T06:08:43.504Z,101178.13
2018-09-04T06:11:11.679Z,101178.98
2018-09-04T06:13:39.756Z,101173.42
2018-09-04T06:16:07.744Z,101170.97
2018-09-04T06:18:35.788Z,101179.59
2018-09-04T06:21:04.851Z,101177.72
2018-09-04T06:23:32.889Z,101173.48
2018-09-04T06:26:00.927Z,101177.30
2018-09-04T06:28:29.001Z,101177.78
2018-09-04T06:33:31.333Z,101179.75
2018-09-04T06:35:59.317Z,101187.45
2018-09-04T06:38:27.351Z,101185.09
2018-09-04T06:40:55.388Z,101181.52
2018-09-04T06:43:23.444Z,101197.45
2018-09-04T06:45:51.498Z,101193.28
2018-09-04T06:48:19.534Z,101196.33
2018-09-04T06:50:47.793Z,101198.80
2018-09-04T06:53:15.832Z,101198.70
2018-09-04T06:55:43.866Z,101198.28
2018-09-04T06:58:11.912Z,101201.14
2018-09-04T07:00:40.020Z,101203.64
2018-09-04T07:03:08.072Z,101197.34
2018-09-04T07:05:42.236Z,101205.23
2018-09-04T07:08:10.301Z,101206.61
2018-09-04T07:10:38.341Z,101210.13
2018-09-04T07:13:06.389Z,101201.91
2018-09-04T07:15:34.470Z,101202.71
2018-09-04T07:18:02.532Z,101205.74
2018-09-04T07:20:30.852Z,101209.62
2018-09-04T07:22:58.962Z,101206.43
2018-09-04T07:25:27.012Z,101216.17
2018-09-04T07:27:55.060Z,101217.92
2018-09-04T07:30:23.169Z,101220.22
2018-09-04T07:32:51.205Z,101221.84
2018-09-04T07:35:19.242Z,101219.08
2018-09-04T07:37:47.312Z,101224.27
2018-09-04T07:40:15.405Z,101223.67
2018-09-04T07:42:43.447Z,101227.41
2018-09-04T07:45:11.500Z,101225.12
2018-09-04T07:47:39.573Z,101226.69
2018-09-04T07:50:08.198Z,101223.14
2018-09-04T07:52:48.566Z,101225.23
2018-09-04T07:55:16.601Z,101219.05
2018-09-04T07:57:44.650Z,101224.08
2018-09-04T08:00:12.676Z,101230.97
2018-09-04T08:02:40.880Z,101230.22
2018-09-04T08:05:08.918Z,101232.23
2018-09-04T08:07:36.948Z,101222.34
2018-09-04T08:10:05.190Z,101228.28
2018-09-04T08:12:33.184Z,101227.56
2018-09-04T08:15:01.224Z,101221.30
2018-09-04T08:17:29.280Z,101217.05
2018-09-04T08:19:57.341Z,101220.11
2018-09-04T08:24:52.469Z,101221.94
2018-09-04T08:27:20.663Z,101220.63
2018-09-04T08:29:48.698Z,101230.63
2018-09-04T08:32:16.740Z,101228.11
2018-09-04T08:34:44.825Z,101233.96
2018-09-04T08:37:12.873Z,101230.13
2018-09-04T08:39:40.981Z,101224.28
2018-09-04T08:42:09.045Z,101225.91
2018-09-04T08:44:37.092Z,101231.23
2018-09-04T08:47:05.271Z,101228.88
2018-09-04T08:49:33.289Z,101231.84
2018-09-04T08:52:01.335Z,101221.14
2018-09-04T08:54:29.405Z,101222.79
2018-09-04T08:56:58.369Z,101227.21
2018-09-04T08:59:26.402Z,101232.95
2018-09-04T09:01:54.425Z,101228.37
2018-09-04T09:04:22.541Z,101225.43
2018-09-04T09:06:50.598Z,101228.41
2018-09-04T09:09:18.625Z,101227.27
2018-09-04T09:11:46.663Z,101227.23
2018-09-04T09:14:14.700Z,101228.56
2018-09-04T09:16:42.774Z,101235.77
2018-09-04T09:19:10.789Z,101239.05
2018-09-04T09:21:38.831Z,101233.08
2018-09-04T09:24:07.060Z,101234.47
2018-09-04T09:26:35.096Z,101229.08
2018-09-04T09:29:03.173Z,101228.42
2018-09-04T09:31:31.213Z,101227.59
2018-09-04T09:33:59.249Z,101222.58
2018-09-04T09:36:27.361Z,101218.84
2018-09-04T09:38:55.343Z,101220.13
2018-09-04T09:41:23.410Z,101218.80
2018-09-04T09:43:51.454Z,101213.46
2018-09-04T09:46:19.530Z,101213.06
2018-09-04T09:48:47.508Z,101216.06
2018-09-04T09:51:15.560Z,101215.42
2018-09-04T09:53:43.642Z,101210.13
2018-09-04T09:56:12.064Z,101216.75
2018-09-04T09:58:40.719Z,101216.60
2018-09-04T10:01:14.117Z,101215.52
2018-09-04T10:03:47.470Z,101206.50
2018-09-04T10:06:15.503Z,101212.16
2018-09-04T10:08:43.536Z,101210.59
2018-09-04T10:11:11.645Z,101207.55
2018-09-04T10:13:39.701Z,101211.88
2018-09-04T10:16:07.712Z,101214.41
2018-09-04T10:18:35.768Z,101208.70
2018-09-04T10:21:03.804Z,101214.11
2018-09-04T10:23:32.118Z,101214.61
2018-09-04T10:26:00.163Z,101212.69
2018-09-04T10:28:28.192Z,101211.05
2018-09-04T10:30:56.234Z,101212.31
2018-09-04T10:33:24.289Z,101208.29
2018-09-04T10:35:52.308Z,101210.97
2018-09-04T10:38:24.198Z,101206.86
2018-09-04T10:40:53.680Z,101206.74
2018-09-04T10:43:21.764Z,101199.78
2018-09-04T10:45:55.224Z,101201.07
2018-09-04T10:48:24.217Z,101203.37
2018-09-04T10:50:52.366Z,101201.77
2018-09-04T10:53:20.616Z,101203.14
2018-09-04T10:55:48.875Z,101201.55
2018-09-04T10:58:16.813Z,101198.18
2018-09-04T11:00:45.009Z,101197.03
2018-09-04T11:03:13.049Z,101206.20
2018-09-04T11:05:41.252Z,101203.02
2018-09-04T11:08:09.316Z,101193.63
2018-09-04T11:10:37.353Z,101196.00
2018-09-04T11:13:05.747Z,101202.36
2018-09-04T11:15:33.831Z,101197.92
2018-09-04T11:18:01.830Z,101195.31
2018-09-04T11:20:29.900Z,101195.22
2018-09-04T11:22:57.935Z,101193.16
2018-09-04T11:25:25.976Z,101193.78
2018-09-04T11:27:54.036Z,101192.11
2018-09-04T11:30:22.116Z,101192.73
2018-09-04T11:32:50.162Z,101193.97
2018-09-04T11:35:18.223Z,101186.66
2018-09-04T11:37:46.278Z,101187.45
2018-09-04T11:40:14.344Z,101189.64
2018-09-04T11:42:42.400Z,101190.66
2018-09-04T11:45:10.732Z,101187.67
2018-09-04T11:47:40.485Z,101191.48
2018-09-04T11:50:08.572Z,101195.52
2018-09-04T11:52:36.753Z,101195.93
2018-09-04T11:55:05.080Z,101193.64
2018-09-04T11:57:33.335Z,101185.89
2018-09-04T12:00:01.361Z,101183.53
2018-09-04T12:02:33.908Z,101179.81
2018-09-04T12:05:01.978Z,101182.18
2018-09-04T12:07:30.040Z,101182.59
2018-09-04T12:09:58.094Z,101181.85
2018-09-04T12:12:30.628Z,101183.91
2018-09-04T12:14:59.317Z,101182.45
2018-09-04T12:17:27.409Z,101185.64
2018-09-04T12:20:05.715Z,101182.95
2018-09-04T12:22:33.761Z,101190.47
2018-09-04T12:25:01.797Z,101199.96
2018-09-04T12:27:29.869Z,101192.73
2018-09-04T12:29:57.933Z,101189.93
2018-09-04T12:32:25.960Z,101188.48
2018-09-04T12:34:54.175Z,101183.63
2018-09-04T12:37:22.212Z,101185.05
2018-09-04T12:39:55.640Z,101188.45
2018-09-04T12:42:23.718Z,101183.06
2018-09-04T12:44:51.721Z,101187.09
2018-09-04T12:47:19.751Z,101190.92
2018-09-04T12:49:47.777Z,101193.59
2018-09-04T12:52:15.857Z,101191.17
2018-09-04T12:54:43.918Z,101186.53
2018-09-04T12:57:11.926Z,101180.20
2018-09-04T12:59:39.985Z,101171.08
2018-09-04T13:02:07.985Z,101179.70
2018-09-04T13:04:36.076Z,101182.91
2018-09-04T13:07:04.855Z,101175.95
2018-09-04T13:09:32.890Z,101178.27
2018-09-04T13:12:00.932Z,101180.20
2018-09-04T13:14:28.983Z,101175.94
2018-09-04T13:17:00.982Z,101174.84
2018-09-04T13:19:29.008Z,101173.17
2018-09-04T13:21:57.063Z,101178.41
2018-09-04T13:24:25.353Z,101176.31
2018-09-04T13:26:53.377Z,101176.63
2018-09-04T13:29:21.426Z,101179.41
2018-09-04T13:31:49.570Z,101170.58
2018-09-04T13:34:17.665Z,101178.05
2018-09-04T13:36:45.664Z,101171.75
2018-09-04T13:39:13.760Z,101168.13
2018-09-04T13:41:41.956Z,101166.77
2018-09-04T13:44:09.992Z,101164.70
2018-09-04T13:46:38.016Z,101158.20
2018-09-04T13:49:06.585Z,101159.95
2018-09-04T13:51:34.724Z,101155.30
2018-09-04T13:54:02.919Z,101154.78
2018-09-04T13:56:30.933Z,101160.67
2018-09-04T13:58:58.960Z,101158.89
2018-09-04T14:01:26.988Z,101161.39
2018-09-04T14:03:55.036Z,101154.27
2018-09-04T14:06:23.157Z,101169.58
2018-09-04T14:08:51.191Z,101170.92
2018-09-04T14:11:19.250Z,101165.76
2018-09-04T14:13:47.274Z,101164.59
2018-09-04T14:16:17.110Z,101163.25
2018-09-04T14:18:45.136Z,101157.04
2018-09-04T14:21:13.192Z,101154.38
2018-09-04T14:23:41.268Z,101156.86
2018-09-04T14:26:09.332Z,101160.05
2018-09-04T14:28:40.967Z,101156.53
2018-09-04T14:31:05.619Z,101152.71
2018-09-04T14:33:40.211Z,101150.64
2018-09-04T14:36:08.273Z,101161.08
2018-09-04T14:38:36.316Z,101161.80
2018-09-04T14:41:05.441Z,101151.76
2018-09-04T14:43:33.501Z,101154.73
2018-09-04T14:46:01.620Z,101153.71
2018-09-04T14:48:29.663Z,101155.04
2018-09-04T14:50:57.710Z,101157.72
2018-09-04T14:53:25.892Z,101153.91
2018-09-04T14:55:53.928Z,101149.98
2018-09-04T14:58:23.214Z,101147.94
2018-09-04T15:00:51.255Z,101151.44
2018-09-04T15:03:26.033Z,101154.12
2018-09-04T15:05:54.092Z,101155.98
2018-09-04T15:08:22.143Z,101156.42
2018-09-04T15:10:50.186Z,101144.53
2018-09-04T15:13:18.241Z,101160.34
2018-09-04T15:15:46.288Z,101161.83
2018-09-04T15:18:14.433Z,101160.99
2018-09-04T15:20:42.505Z,101156.88
2018-09-04T15:23:10.544Z,101145.87
2018-09-04T15:25:38.588Z,101145.25
2018-09-04T15:28:06.620Z,101144.63
2018-09-04T15:30:34.652Z,101150.83
2018-09-04T15:33:02.887Z,101147.09
2018-09-04T15:35:30.932Z,101148.33
2018-09-04T15:37:58.973Z,101143.56
2018-09-04T15:40:27.005Z,101146.64
2018-09-04T15:42:55.130Z,101146.30
2018-09-04T15:45:23.181Z,101146.52
2018-09-04T15:47:51.220Z,101145.55
2018-09-04T15:50:19.249Z,101139.52
2018-09-04T15:52:47.280Z,101150.55
2018-09-04T15:55:15.320Z,101143.64
2018-09-04T15:57:43.349Z,101152.33
2018-09-04T16:00:11.411Z,101157.39
2018-09-04T16:02:39.449Z,101148.46
2018-09-04T16:05:07.484Z,101149.59
2018-09-04T16:07:35.518Z,101154.91
2018-09-04T16:10:03.825Z,101154.56
2018-09-04T16:12:34.564Z,101152.16
2018-09-04T16:17:36.895Z,101150.64
2018-09-04T16:20:05.276Z,101156.22
2018-09-04T16:22:33.308Z,101149.91
2018-09-04T16:25:01.343Z,101148.70
2018-09-04T16:27:29.388Z,101143.42
2018-09-04T16:29:57.448Z,101144.42
2018-09-04T16:32:25.494Z,101145.73
2018-09-04T16:34:53.655Z,101150.45
2018-09-04T16:37:21.596Z,101151.80
2018-09-04T16:39:56.069Z,101152.30
2018-09-04T16:42:24.111Z,101151.33
2018-09-04T16:44:52.148Z,101155.74
2018-09-04T16:47:20.191Z,101160.20
2018-09-04T16:49:48.219Z,101157.72
2018-09-04T16:52:16.272Z,101162.07
2018-09-04T16:54:44.566Z,101159.45
2018-09-04T16:57:12.588Z,101153.77
2018-09-04T16:59:40.653Z,101157.28
2018-09-04T17:02:08.681Z,101157.14
2018-09-04T17:04:36.731Z,101158.05
2018-09-04T17:07:04.903Z,101155.06
2018-09-04T17:09:33.010Z,101157.49
2018-09-04T17:12:01.048Z,101160.23
2018-09-04T17:14:29.270Z,101154.66
2018-09-04T17:16:57.321Z,101162.45
2018-09-04T17:19:25.349Z,101169.19
2018-09-04T17:21:53.568Z,101161.92
2018-09-04T17:24:21.685Z,101168.36
2018-09-04T17:26:49.717Z,101166.23
2018-09-04T17:29:17.785Z,101172.98
2018-09-04T17:31:45.820Z,101180.97
2018-09-04T17:34:13.851Z,101185.69
2018-09-04T17:36:41.960Z,101183.41
2018-09-04T17:39:10.104Z,101185.23
2018-09-04T17:41:38.180Z,101187.27
2018-09-04T17:44:06.498Z,101184.79
2018-09-04T17:46:34.548Z,101180.78
2018-09-04T17:49:02.603Z,101186.81
2018-09-04T17:51:30.660Z,101189.84
2018-09-04T17:53:58.732Z,101187.61
2018-09-04T17:56:26.812Z,101192.16
2018-09-04T17:58:55.104Z,101186.21
2018-09-04T18:01:23.229Z,101195.66
2018-09-04T18:03:51.377Z,101197.03
2018-09-04T18:06:19.424Z,101190.24
2018-09-04T18:08:47.484Z,101200.82
2018-09-04T18:11:15.567Z,101197.05
2018-09-04T18:13:43.597Z,101199.72
2018-09-04T18:16:11.636Z,101202.77
2018-09-04T18:18:39.676Z,101202.16
2018-09-04T18:21:07.740Z,101200.70
2018-09-04T18:23:35.803Z,101207.26
2018-09-04T18:26:04.869Z,101211.52
2018-09-04T18:28:32.979Z,101212.76
2018-09-04T18:31:01.075Z,101210.83
2018-09-04T18:33:33.801Z,101212.58
2018-09-04T18:36:01.923Z,101214.95
2018-09-04T18:38:29.935Z,101217.53
2018-09-04T18:40:57.989Z,101217.91
2018-09-04T18:43:26.038Z,101218.97
2018-09-04T18:45:55.362Z,101221.16
2018-09-04T18:48:23.459Z,101223.20
2018-09-04T18:50:51.539Z,101230.88
2018-09-04T18:53:19.585Z,101231.22
2018-09-04T18:55:47.671Z,101236.24
2018-09-04T18:58:15.729Z,101235.41
2018-09-04T19:00:44.138Z,101236.93
2018-09-04T19:03:12.182Z,101238.09
2018-09-04T19:05:40.249Z,101234.63
2018-09-04T19:08:08.280Z,101237.45
2018-09-04T19:10:36.337Z,101227.98
2018-09-04T19:13:04.981Z,101232.66
2018-09-04T19:15:33.004Z,101239.46
2018-09-04T19:18:01.048Z,101232.98
2018-09-04T19:20:29.085Z,101240.27
2018-09-04T19:22:57.125Z,101240.77
2018-09-04T19:25:25.169Z,101240.94
2018-09-04T19:27:53.856Z,101243.94
2018-09-04T19:30:21.911Z,101245.76
2018-09-04T19:32:49.964Z,101243.58
2018-09-04T19:35:18.025Z,101236.25
2018-09-04T19:37:46.093Z,101240.23
2018-09-04T19:40:20.808Z,101243.23
2018-09-04T19:42:48.889Z,101244.20
2018-09-04T19:45:16.946Z,101241.70
2018-09-04T19:47:44.989Z,101244.83
2018-09-04T19:50:13.204Z,101245.46
2018-09-04T19:52:41.247Z,101241.45
2018-09-04T19:55:10.424Z,101252.09
2018-09-04T19:57:38.627Z,101251.75
2018-09-04T20:00:07.552Z,101246.40
2018-09-04T20:02:35.612Z,101251.03
2018-09-04T20:05:03.755Z,101253.19
2018-09-04T20:07:31.811Z,101255.47
2018-09-04T20:09:59.829Z,101263.27
2018-09-04T20:12:27.905Z,101259.09
2018-09-04T20:14:55.952Z,101262.55
2018-09-04T20:17:24.001Z,101262.88
2018-09-04T20:19:52.079Z,101266.68
2018-09-04T20:22:20.113Z,101264.84
2018-09-04T20:24:48.186Z,101262.16
2018-09-04T20:27:16.356Z,101262.45
2018-09-04T20:29:44.404Z,101263.44
2018-09-04T20:32:12.449Z,101267.02
2018-09-04T20:34:40.556Z,101266.02
2018-09-04T20:37:08.595Z,101267.99
2018-09-04T20:39:36.667Z,101275.94
2018-09-04T20:42:04.984Z,101279.05
2018-09-04T20:44:33.013Z,101281.84
2018-09-04T20:47:01.060Z,101280.32
2018-09-04T20:49:29.118Z,101277.47
2018-09-04T20:51:57.225Z,101274.49
2018-09-04T20:54:25.298Z,101271.45
2018-09-04T20:57:01.200Z,101277.92
2018-09-04T20:59:40.577Z,101277.57
2018-09-04T21:02:19.968Z,101284.70
2018-09-04T21:04:59.364Z,101282.36
2018-09-04T21:09:41.388Z,101288.32
2018-09-04T21:12:09.804Z,101289.91
2018-09-04T21:14:37.996Z,101299.36
2018-09-04T21:17:06.144Z,101296.86
2018-09-04T21:19:34.215Z,101289.38
2018-09-04T21:22:02.301Z,101295.14
2018-09-04T21:24:30.368Z,101297.12
2018-09-04T21:26:58.435Z,101291.77
2018-09-04T21:29:26.472Z,101290.76
2018-09-04T21:31:54.521Z,101287.42
2018-09-04T21:34:22.602Z,101287.38
2018-09-04T21:36:50.648Z,101287.70
2018-09-04T21:39:18.680Z,101293.83
2018-09-04T21:41:46.731Z,101293.14
2018-09-04T21:44:14.781Z,101295.72
2018-09-04T21:46:42.985Z,101297.00
2018-09-04T21:49:11.018Z,101297.80
2018-09-04T21:51:39.044Z,101293.78
2018-09-04T21:54:07.164Z,101299.69
2018-09-04T21:56:35.190Z,101297.67
2018-09-04T21:59:03.600Z,101298.95
2018-09-04T22:01:31.652Z,101295.63
2018-09-04T22:03:59.704Z,101296.27
2018-09-04T22:06:27.745Z,101298.38
2018-09-04T22:08:55.802Z,101296.53
2018-09-04T22:11:23.853Z,101299.45
2018-09-04T22:13:52.045Z,101310.70
2018-09-04T22:16:20.079Z,101306.20
2018-09-04T22:18:48.168Z,101302.02
2018-09-04T22:21:16.199Z,101306.30
2018-09-04T22:23:44.393Z,101299.47
2018-09-04T22:26:12.423Z,101302.91
2018-09-04T22:28:40.444Z,101302.02
2018-09-04T22:31:08.643Z,101304.62
2018-09-04T22:33:36.678Z,101307.06
2018-09-04T22:36:06.069Z,101304.20
2018-09-04T22:38:34.276Z,101304.03
2018-09-04T22:41:02.321Z,101300.81
2018-09-04T22:43:30.349Z,101307.23
2018-09-04T22:45:58.407Z,101313.17
2018-09-04T22:48:26.440Z,101307.98
2018-09-04T22:50:59.905Z,101310.47
2018-09-04T22:53:27.949Z,101309.72
2018-09-04T22:55:55.968Z,101310.05
2018-09-04T22:58:24.012Z,101305.05
2018-09-04T23:00:52.067Z,101304.36
2018-09-04T23:03:20.132Z,101307.64
2018-09-04T23:05:48.179Z,101310.56
2018-09-04T23:08:16.209Z,101311.35
2018-09-04T23:10:44.276Z,101299.70
2018-09-04T23:13:12.321Z,101301.80
2018-09-04T23:15:43.637Z,101299.45
2018-09-04T23:18:13.667Z,101298.08
2018-09-04T23:20:41.830Z,101297.95
2018-09-04T23:23:10.095Z,101299.55
2018-09-04T23:25:38.166Z,101301.72
2018-09-04T23:28:06.384Z,101299.06
2018-09-04T23:30:34.455Z,101297.05
2018-09-04T23:33:02.499Z,101296.20
2018-09-04T23:35:30.540Z,101291.91
2018-09-04T23:37:58.733Z,101295.18
2018-09-04T23:40:26.767Z,101295.33
2018-09-04T23:42:54.805Z,101291.14
2018-09-04T23:45:22.847Z,101296.08
2018-09-04T23:47:50.885Z,101293.73
2018-09-04T23:50:18.926Z,101292.20
2018-09-04T23:52:47.526Z,101289.33
2018-09-04T23:55:15.520Z,101286.83
2018-09-04T23:57:43.548Z,101284.48
